createdAt,value
2023-08-12T00:05:24.170Z,39.7
2023-08-12T00:20:47.465Z,40.6
2023-08-12T00:36:10.761Z,39.9
2023-08-12T00:51:34.057Z,41
2023-08-12T01:06:57.354Z,40.4
2023-08-12T01:22:19.671Z,40.2
2023-08-12T01:37:42.966Z,41.2
2023-08-12T01:53:06.262Z,40.2
2023-08-12T02:08:29.557Z,40.7
2023-08-12T02:23:52.852Z,42.7
2023-08-12T02:39:16.147Z,42
2023-08-12T02:54:39.443Z,41.8
2023-08-12T03:10:02.737Z,40.9
2023-08-12T03:25:26.032Z,41
2023-08-12T03:40:49.284Z,43.1
2023-08-12T03:56:12.536Z,38
2023-08-12T04:11:35.787Z,42
2023-08-12T04:26:59.039Z,41
2023-08-12T04:42:21.306Z,46.4
2023-08-12T04:57:44.558Z,56.8
2023-08-12T05:13:07.810Z,41.8
2023-08-12T05:28:31.061Z,41.7
2023-08-12T05:43:54.312Z,49.7
2023-08-12T05:59:17.564Z,47.3
2023-08-12T06:14:40.818Z,44.3
2023-08-12T06:30:04.070Z,39.9
2023-08-12T06:45:27.321Z,43.3
2023-08-12T07:00:50.575Z,42.2
2023-08-12T07:16:13.829Z,44.4
2023-08-12T07:31:37.080Z,43.5
2023-08-12T07:47:00.329Z,54.3
2023-08-12T08:02:22.599Z,54.1
2023-08-12T08:17:45.852Z,52.6
2023-08-12T08:33:09.106Z,40.2
2023-08-12T08:48:32.357Z,48.5
2023-08-12T09:03:55.611Z,52.6
2023-08-12T09:19:18.861Z,44.6
2023-08-12T09:34:42.116Z,55.2
2023-08-12T09:50:05.369Z,57.2
2023-08-12T09:51:28.778Z,41.5
2023-08-12T09:52:52.188Z,47
2023-08-12T09:54:15.596Z,44.9
2023-08-12T09:55:39.005Z,47.5
2023-08-12T09:57:02.414Z,37.7
2023-08-12T09:58:24.839Z,42.3
2023-08-12T09:59:48.247Z,38.1
2023-08-12T10:01:11.656Z,42.3
2023-08-12T10:02:35.065Z,38.8
2023-08-12T10:03:58.480Z,42.5
2023-08-12T10:05:21.889Z,53
2023-08-12T10:06:45.295Z,54.3
2023-08-12T10:08:08.704Z,57.2
2023-08-12T10:09:32.112Z,38.9
2023-08-12T10:10:55.519Z,36.4
2023-08-12T10:12:18.928Z,39.6
2023-08-12T10:13:42.334Z,38.6
2023-08-12T10:15:05.743Z,34.3
2023-08-12T10:16:28.170Z,36.5
2023-08-12T10:17:51.576Z,38.8
2023-08-12T10:19:14.981Z,38
2023-08-12T10:20:38.387Z,36.2
2023-08-12T10:22:01.796Z,38
2023-08-12T10:23:25.205Z,36.8
2023-08-12T10:24:48.614Z,35.9
2023-08-12T10:26:12.031Z,37.8
2023-08-12T10:27:35.440Z,38.9
2023-08-12T10:28:58.849Z,36.8
2023-08-12T10:30:22.256Z,37.3
2023-08-12T10:31:45.662Z,35.2
2023-08-12T10:33:09.071Z,36.4
2023-08-12T10:34:31.496Z,39.3
2023-08-12T10:35:54.903Z,37.2
2023-08-12T10:37:18.312Z,37.5
2023-08-12T10:38:41.721Z,52.3
2023-08-12T10:40:05.130Z,55.4
2023-08-12T10:41:28.534Z,52.6
2023-08-12T10:42:51.941Z,51.7
2023-08-12T10:44:15.350Z,54.9
2023-08-12T10:45:38.758Z,54.4
2023-08-12T10:47:02.165Z,57.8
2023-08-12T10:48:25.570Z,54.3
2023-08-12T10:49:48.979Z,40.4
2023-08-12T10:51:12.387Z,41.5
2023-08-12T10:52:34.812Z,50.2
2023-08-12T10:53:58.221Z,40.2
2023-08-12T10:55:21.630Z,48.5
2023-08-12T10:56:45.038Z,38.5
2023-08-12T10:58:08.447Z,39.1
2023-08-12T10:59:31.856Z,36.2
2023-08-12T11:00:55.262Z,43.8
2023-08-12T11:02:18.667Z,40.2
2023-08-12T11:03:42.072Z,37.7
2023-08-12T11:05:05.480Z,39.7
2023-08-12T11:06:28.892Z,38.5
2023-08-12T11:07:52.301Z,41.2
2023-08-12T11:09:15.710Z,42.3
2023-08-12T11:10:38.130Z,57.3
2023-08-12T11:12:01.540Z,43
2023-08-12T11:13:24.947Z,43.8
2023-08-12T11:14:48.357Z,42
2023-08-12T11:16:11.767Z,42
2023-08-12T11:17:35.176Z,42.3
2023-08-12T11:18:58.583Z,38
2023-08-12T11:20:21.989Z,41.5
2023-08-12T11:21:45.395Z,40.9
2023-08-12T11:23:08.805Z,53.3
2023-08-12T11:24:32.214Z,44.1
2023-08-12T11:25:55.623Z,45.7
2023-08-12T11:27:19.027Z,44.1
2023-08-12T11:28:41.452Z,51.7
2023-08-12T11:30:04.861Z,54.6
2023-08-12T11:31:28.270Z,39.3
2023-08-12T11:32:51.678Z,41.5
2023-08-12T11:34:15.087Z,41
2023-08-12T11:35:38.495Z,37.8
2023-08-12T11:37:01.904Z,38.1
2023-08-12T11:38:25.313Z,40.1
2023-08-12T11:39:48.722Z,39.9
2023-08-12T11:41:12.130Z,40.4
2023-08-12T11:42:35.544Z,40.9
2023-08-12T11:43:58.951Z,37.3
2023-08-12T11:45:22.355Z,49.1
2023-08-12T11:46:44.780Z,44.4
2023-08-12T11:48:08.189Z,37.2
2023-08-12T11:49:31.596Z,47.3
2023-08-12T11:50:55.009Z,49.9
2023-08-12T11:52:18.418Z,38
2023-08-12T11:53:41.826Z,37.3
2023-08-12T11:55:05.235Z,43.9
2023-08-12T11:56:28.644Z,39.3
2023-08-12T11:57:52.056Z,37.8
2023-08-12T11:59:15.464Z,37.5
2023-08-12T12:00:38.873Z,39.7
2023-08-12T12:02:02.282Z,36
2023-08-12T12:03:25.691Z,42.8
2023-08-12T12:04:48.115Z,36
2023-08-12T12:06:11.524Z,51.5
2023-08-12T12:07:34.933Z,55.9
2023-08-12T12:08:58.339Z,55.2
2023-08-12T12:10:21.748Z,53.9
2023-08-12T12:11:45.156Z,55.9
2023-08-12T12:13:08.565Z,56.5
2023-08-12T12:14:31.974Z,53.3
2023-08-12T12:15:55.383Z,54.4
2023-08-12T12:17:18.791Z,53.8
2023-08-12T12:18:42.200Z,56.2
2023-08-12T12:20:05.608Z,58.9
2023-08-12T12:21:29.017Z,56.2
2023-08-12T12:22:51.440Z,54.9
2023-08-12T12:24:14.848Z,52
2023-08-12T12:25:38.257Z,55.9
2023-08-12T12:27:01.666Z,52.3
2023-08-12T12:28:25.075Z,36
2023-08-12T12:29:48.481Z,42.3
2023-08-12T12:31:11.890Z,40.4
2023-08-12T12:32:35.299Z,37.2
2023-08-12T12:33:58.717Z,38.6
2023-08-12T12:35:22.126Z,56
2023-08-12T12:36:45.539Z,52
2023-08-12T12:38:08.943Z,53
2023-08-12T12:39:32.352Z,51.8
2023-08-12T12:40:54.777Z,53.1
2023-08-12T12:42:18.186Z,40.7
2023-08-12T12:43:41.595Z,50.7
2023-08-12T12:45:05.004Z,51.2
2023-08-12T12:46:28.413Z,34.9
2023-08-12T12:47:51.822Z,39.1
2023-08-12T12:49:15.228Z,39.1
2023-08-12T12:50:38.637Z,39.3
2023-08-12T12:52:02.046Z,50.1
2023-08-12T12:53:25.455Z,48.3
2023-08-12T12:54:48.864Z,45.2
2023-08-12T12:56:12.273Z,41.2
2023-08-12T12:57:35.683Z,41.8
2023-08-12T12:58:58.108Z,41.7
2023-08-12T13:00:21.517Z,42.3
2023-08-12T13:01:44.927Z,60.2
2023-08-12T13:03:08.337Z,56.3
2023-08-12T13:04:31.744Z,40.4
2023-08-12T13:05:55.155Z,38.5
2023-08-12T13:07:18.564Z,38.3
2023-08-12T13:08:41.974Z,39.3
2023-08-12T13:10:05.383Z,39.1
2023-08-12T13:11:28.793Z,40.7
2023-08-12T13:12:52.203Z,34.4
2023-08-12T13:14:15.613Z,37.8
2023-08-12T13:15:39.023Z,36.7
2023-08-12T13:17:01.449Z,35.9
2023-08-12T13:18:24.863Z,40.7
2023-08-12T13:19:48.273Z,38.6
2023-08-12T13:21:11.683Z,40.9
2023-08-12T13:22:35.092Z,41
2023-08-12T13:23:58.502Z,37.8
2023-08-12T13:25:21.912Z,40.7
2023-08-12T13:26:45.322Z,50.1
2023-08-12T13:28:08.732Z,41.4
2023-08-12T13:29:32.139Z,43.1
2023-08-12T13:30:55.546Z,48.5
2023-08-12T13:32:18.956Z,46.4
2023-08-12T13:33:42.365Z,40.1
2023-08-12T13:35:04.791Z,37.8
2023-08-12T13:36:28.206Z,42.5
2023-08-12T13:37:51.613Z,35.6
2023-08-12T13:39:15.027Z,35.6
2023-08-12T13:40:38.437Z,42.7
2023-08-12T13:42:01.847Z,40.7
2023-08-12T13:43:24.277Z,36.4
2023-08-12T13:44:47.687Z,38.9
2023-08-12T13:46:11.096Z,43
2023-08-12T13:47:34.503Z,36.5
2023-08-12T13:48:57.913Z,37
2023-08-12T13:50:21.322Z,43.8
2023-08-12T13:51:44.732Z,38.8
2023-08-12T13:53:08.141Z,43.8
2023-08-12T13:54:31.551Z,41
2023-08-12T13:55:54.960Z,40.9
2023-08-12T13:57:18.369Z,35.2
2023-08-12T13:58:41.779Z,40.2
2023-08-12T14:00:05.188Z,36
2023-08-12T14:01:27.614Z,35.9
2023-08-12T14:02:51.024Z,35.1
2023-08-12T14:04:14.434Z,41
2023-08-12T14:05:37.851Z,34.9
2023-08-12T14:07:01.260Z,36.2
2023-08-12T14:08:24.672Z,47.2
2023-08-12T14:09:48.081Z,35.7
2023-08-12T14:11:11.491Z,34.9
2023-08-12T14:12:34.900Z,52
2023-08-12T14:13:58.310Z,37.2
2023-08-12T14:15:21.719Z,42.2
2023-08-12T14:16:45.134Z,39.9
2023-08-12T14:18:08.539Z,40.9
2023-08-12T14:19:30.965Z,45.1
2023-08-12T14:20:54.374Z,39.6
2023-08-12T14:22:17.784Z,38.6
2023-08-12T14:23:41.193Z,36.2
2023-08-12T14:25:04.603Z,36.4
2023-08-12T14:26:28.012Z,35.1
2023-08-12T14:27:51.422Z,39.6
2023-08-12T14:29:14.831Z,48.6
2023-08-12T14:30:38.246Z,36.4
2023-08-12T14:32:01.653Z,34.8
2023-08-12T14:33:25.062Z,34.6
2023-08-12T14:34:48.472Z,41.2
2023-08-12T14:36:11.881Z,47.6
2023-08-12T14:37:35.416Z,33.5
2023-08-12T14:38:58.825Z,36
2023-08-12T14:40:22.235Z,37
2023-08-12T14:41:45.644Z,38
2023-08-12T14:43:09.054Z,39.3
2023-08-12T14:44:32.463Z,37
2023-08-12T14:45:55.872Z,38.8
2023-08-12T14:47:19.281Z,36
2023-08-12T14:48:42.688Z,36.7
2023-08-12T14:50:06.097Z,43.5
2023-08-12T14:51:29.506Z,38
2023-08-12T14:52:52.921Z,53
2023-08-12T14:54:16.331Z,40.7
2023-08-12T14:55:38.752Z,48.3
2023-08-12T14:57:02.159Z,34.6
2023-08-12T14:58:25.568Z,38.8
2023-08-12T14:59:48.978Z,40.1
2023-08-12T15:01:12.388Z,34.8
2023-08-12T15:02:35.797Z,33.8
2023-08-12T15:03:59.206Z,35.2
2023-08-12T15:05:22.615Z,39.1
2023-08-12T15:06:46.025Z,41.7
2023-08-12T15:08:09.434Z,38.1
2023-08-12T15:09:32.844Z,36
2023-08-12T15:10:56.253Z,38.6
2023-08-12T15:12:19.662Z,41.2
2023-08-12T15:13:42.084Z,38.6
2023-08-12T15:15:05.493Z,38.6
2023-08-12T15:16:28.903Z,36
2023-08-12T15:17:52.312Z,35.7
2023-08-12T15:19:15.717Z,35.7
2023-08-12T15:20:39.127Z,37.2
2023-08-12T15:22:02.536Z,46.5
2023-08-12T15:23:25.946Z,39.7
2023-08-12T15:24:49.355Z,38
2023-08-12T15:26:12.765Z,39.4
2023-08-12T15:27:36.174Z,42.8
2023-08-12T15:28:59.581Z,39.6
2023-08-12T15:30:22.990Z,40.1
2023-08-12T15:31:45.416Z,41.7
2023-08-12T15:33:08.825Z,43.9
2023-08-12T15:34:32.234Z,35.7
2023-08-12T15:35:55.641Z,36
2023-08-12T15:37:19.051Z,40.1
2023-08-12T15:38:42.456Z,41.7
2023-08-12T15:40:05.870Z,39.4
2023-08-12T15:41:29.277Z,37.5
2023-08-12T15:42:52.686Z,41.8
2023-08-12T15:44:16.093Z,39.6
2023-08-12T15:45:39.507Z,37.2
2023-08-12T15:47:02.914Z,46.5
2023-08-12T15:48:26.323Z,44.4
2023-08-12T15:49:48.755Z,40.9
2023-08-12T15:51:12.164Z,40.9
2023-08-12T15:52:35.570Z,42.8
2023-08-12T15:53:58.976Z,49.1
2023-08-12T15:55:22.385Z,51.8
2023-08-12T15:56:45.794Z,45.4
2023-08-12T15:58:09.202Z,43.5
2023-08-12T15:59:32.608Z,49.3
2023-08-12T16:00:56.017Z,49.1
2023-08-12T16:02:19.426Z,59.4
2023-08-12T16:03:42.835Z,55.7
2023-08-12T16:05:06.243Z,63.1
2023-08-12T16:06:29.652Z,56.3
2023-08-12T16:07:52.077Z,56.3
2023-08-12T16:09:15.485Z,53.6
2023-08-12T16:10:38.891Z,67.3
2023-08-12T16:12:02.300Z,53.9
2023-08-12T16:13:25.709Z,55.5
2023-08-12T16:14:49.116Z,54.4
2023-08-12T16:16:12.521Z,59.7
2023-08-12T16:17:35.927Z,58.3
2023-08-12T16:18:59.334Z,56.8
2023-08-12T16:20:22.740Z,55.1
2023-08-12T16:21:46.147Z,55.9
2023-08-12T16:23:09.556Z,55.2
2023-08-12T16:24:32.962Z,54.6
2023-08-12T16:25:55.385Z,53.4
2023-08-12T16:27:18.792Z,54.3
2023-08-12T16:28:42.201Z,53.8
2023-08-12T16:30:05.610Z,52
2023-08-12T16:31:29.019Z,54.4
2023-08-12T16:32:52.428Z,51.8
2023-08-12T16:34:15.837Z,52.3
2023-08-12T16:35:39.246Z,49.4
2023-08-12T16:37:02.655Z,49.9
2023-08-12T16:38:26.064Z,65.4
2023-08-12T16:39:49.472Z,50.7
2023-08-12T16:41:12.881Z,49.1
2023-08-12T16:42:36.287Z,48.1
2023-08-12T16:43:58.710Z,45.9
2023-08-12T16:45:22.119Z,49.6
2023-08-12T16:46:45.528Z,47.5
2023-08-12T16:48:08.937Z,42.8
2023-08-12T16:49:32.344Z,40.1
2023-08-12T16:50:55.753Z,44.6
2023-08-12T16:52:19.162Z,42.7
2023-08-12T16:53:42.571Z,59.7
2023-08-12T16:55:05.980Z,58.3
2023-08-12T16:56:29.389Z,45.4
2023-08-12T16:57:52.798Z,41.8
2023-08-12T16:59:16.207Z,40.2
2023-08-12T17:00:39.615Z,41.5
2023-08-12T17:02:02.041Z,49.1
2023-08-12T17:03:25.449Z,40.9
2023-08-12T17:04:48.858Z,41.2
2023-08-12T17:06:12.267Z,41.5
2023-08-12T17:07:35.674Z,39.6
2023-08-12T17:08:59.082Z,40.1
2023-08-12T17:10:22.489Z,43.8
2023-08-12T17:11:45.897Z,40.9
2023-08-12T17:13:09.303Z,41
2023-08-12T17:14:32.713Z,37.5
2023-08-12T17:15:56.121Z,39.1
2023-08-12T17:17:19.530Z,39.1
2023-08-12T17:18:42.936Z,38.1
2023-08-12T17:20:05.366Z,40.1
2023-08-12T17:21:28.775Z,41.4
2023-08-12T17:22:52.182Z,38.1
2023-08-12T17:24:15.590Z,37.5
2023-08-12T17:25:38.999Z,41.2
2023-08-12T17:27:02.406Z,37.8
2023-08-12T17:28:25.814Z,42.7
2023-08-12T17:29:49.221Z,38.8
2023-08-12T17:31:12.629Z,40.6
2023-08-12T17:32:36.038Z,38.1
2023-08-12T17:33:59.444Z,42.7
2023-08-12T17:35:22.850Z,42.8
2023-08-12T17:36:46.259Z,38.5
2023-08-12T17:38:08.685Z,38.9
2023-08-12T17:39:32.095Z,41.8
2023-08-12T17:40:55.503Z,41.4
2023-08-12T17:42:18.910Z,38.8
2023-08-12T17:43:42.318Z,38.9
2023-08-12T17:45:05.727Z,50.4
2023-08-12T17:46:29.136Z,40.1
2023-08-12T17:47:52.544Z,37.5
2023-08-12T17:49:15.953Z,49.7
2023-08-12T17:50:39.360Z,39.3
2023-08-12T17:52:02.769Z,39.1
2023-08-12T17:53:26.177Z,56.7
2023-08-12T17:54:49.584Z,42.8
2023-08-12T17:56:12.008Z,37.8
2023-08-12T17:57:35.415Z,39.4
2023-08-12T17:58:58.823Z,40.6
2023-08-12T18:00:22.229Z,45.1
2023-08-12T18:01:45.636Z,43.6
2023-08-12T18:03:09.045Z,39.1
2023-08-12T18:04:32.453Z,41.5
2023-08-12T18:05:55.862Z,42.7
2023-08-12T18:07:19.270Z,38.6
2023-08-12T18:08:42.679Z,38.8
2023-08-12T18:10:06.088Z,47.3
2023-08-12T18:11:29.497Z,42
2023-08-12T18:12:52.903Z,37.8
2023-08-12T18:14:15.326Z,39.6
2023-08-12T18:15:38.735Z,39.4
2023-08-12T18:17:02.143Z,38
2023-08-12T18:18:25.551Z,38.3
2023-08-12T18:19:48.969Z,39.9
2023-08-12T18:21:12.382Z,39.6
2023-08-12T18:22:34.811Z,38
2023-08-12T18:23:58.218Z,38
2023-08-12T18:25:21.626Z,44.1
2023-08-12T18:26:45.033Z,39.3
2023-08-12T18:28:08.442Z,39.1
2023-08-12T18:29:31.850Z,38.3
2023-08-12T18:30:55.255Z,40.1
2023-08-12T18:32:18.661Z,39.1
2023-08-12T18:33:42.067Z,40.4
2023-08-12T18:35:05.474Z,38.1
2023-08-12T18:36:28.880Z,39.9
2023-08-12T18:37:52.289Z,40.6
2023-08-12T18:39:15.698Z,45.2
2023-08-12T18:40:38.122Z,38.3
2023-08-12T18:42:01.532Z,39.6
2023-08-12T18:43:24.938Z,39.4
2023-08-12T18:44:48.344Z,38.9
2023-08-12T18:46:11.749Z,41.7
2023-08-12T18:47:35.155Z,41.5
2023-08-12T18:48:58.565Z,45.4
2023-08-12T18:50:21.970Z,39.3
2023-08-12T18:51:45.357Z,39.6
2023-08-12T18:53:08.783Z,38.8
2023-08-12T18:54:32.189Z,38.3
2023-08-12T18:55:55.595Z,40.6
2023-08-12T18:57:19.002Z,40.2
2023-08-12T18:58:41.422Z,39.4
2023-08-12T19:00:04.834Z,40.2
2023-08-12T19:01:28.242Z,39.4
2023-08-12T19:02:51.651Z,38.6
2023-08-12T19:04:15.056Z,39.7
2023-08-12T19:05:38.474Z,41.8
2023-08-12T19:07:01.924Z,50.5
2023-08-12T19:08:25.333Z,38.6
2023-08-12T19:09:48.739Z,38.5
2023-08-12T19:11:12.191Z,40.6
2023-08-12T19:12:35.638Z,40.6
2023-08-12T19:13:59.087Z,38.8
2023-08-12T19:15:22.537Z,38.8
2023-08-12T19:16:45.003Z,40.2
2023-08-12T19:18:08.454Z,38.8
2023-08-12T19:19:31.909Z,39.6
2023-08-12T19:20:55.358Z,41.5
2023-08-12T19:22:18.809Z,40.4
2023-08-12T19:23:42.260Z,39.4
2023-08-12T19:25:05.711Z,40.1
2023-08-12T19:26:29.159Z,38.9
2023-08-12T19:27:52.608Z,39.4
2023-08-12T19:29:16.056Z,39.6
2023-08-12T19:30:39.505Z,39.1
2023-08-12T19:32:02.952Z,39.3
2023-08-12T19:33:26.401Z,40.9
2023-08-12T19:34:48.867Z,41.4
2023-08-12T19:36:12.316Z,38.3
2023-08-12T19:37:35.765Z,39.3
2023-08-12T19:38:59.214Z,39.1
2023-08-12T19:40:22.662Z,40.2
2023-08-12T19:55:45.957Z,40.2
2023-08-12T20:11:09.252Z,40.1
2023-08-12T20:26:32.545Z,40.6
2023-08-12T20:41:55.838Z,39.7
2023-08-12T20:57:19.133Z,41.4
2023-08-12T21:12:42.429Z,41
2023-08-12T21:28:05.727Z,38.6
2023-08-12T21:43:29.023Z,38.6
2023-08-12T21:58:51.339Z,39.3
2023-08-12T22:14:14.638Z,39.7
2023-08-12T22:29:37.935Z,38.6
2023-08-12T22:45:01.232Z,39.3
2023-08-12T23:00:24.526Z,39.1
2023-08-12T23:15:47.822Z,39.7
2023-08-12T23:31:11.118Z,39.6
2023-08-12T23:46:34.411Z,39.4
